Huvudsida
METAR-TAF:

METAR-TAF

Flygplatser :

Messina, Italien

latitud: 38-12N, longitud: 015-33E, höjd: 59 m

Aktuellt väderrapport

Denna rapport gjordes för 47 minuter sedan, klockan 12:55 UTC
Vind 5 kt från nordost i byarna ända upp till 16 kt
Temperatur 16°C
Fuktighet 48%
Tryck 1026 hPa
Sikt 10 km eller mer
Spridda moln på en höjd av 2500 ft

METAR: LICF 221255Z 04005G16KT 9999 SCT025 16/05 Q1026 RMK BKN QUK 2 QUL 0 VIS MAR 20 KM MON LIB VAR RAPID VIS MIN 9999

Tid: 14:42 (13:42 UTC)


TAF: saknas

Aktuella väderrapporter och prognoser från 4000 flygplatser (METAR- och TAF-rapporter).

De tillgängliga stationerna syns som gula och röda prickar på kartan.

För musen över prickarna för att se namnen på stationerna.

Klicka sedan för att få väderrapporter och prognoser.

För att ändra kartan: Klicka på de gröna knapparna med ett svart kors på för att zooma in; den gröna knappen med ett streck på för att zooma ut; eller på de gröna pilarna för angränsande kartor.


METAR-TAF: